createdAt,value
2022-08-26T00:01:44.925Z,100570.75
2022-08-26T00:04:12.772Z,100639.59
2022-08-26T00:06:42.714Z,100640.50
2022-08-26T00:09:15.888Z,100647.63
2022-08-26T00:11:44.304Z,100636.25
2022-08-26T00:14:13.135Z,100618.00
2022-08-26T00:16:40.812Z,100590.25
2022-08-26T00:19:08.704Z,100622.38
2022-08-26T00:21:37.625Z,100639.81
2022-08-26T00:24:05.961Z,100654.00
2022-08-26T00:26:35.024Z,100609.47
2022-08-26T00:29:02.158Z,100632.25
2022-08-26T00:31:31.223Z,100627.69
2022-08-26T00:33:58.689Z,100593.13
2022-08-26T00:36:29.809Z,100640.00
2022-08-26T00:38:58.177Z,100643.56
2022-08-26T00:41:25.248Z,100628.88
2022-08-26T00:43:53.297Z,100642.88
2022-08-26T00:46:25.717Z,100649.00
2022-08-26T00:48:58.685Z,100648.28
2022-08-26T00:51:29.644Z,100621.22
2022-08-26T00:54:10.869Z,100635.94
2022-08-26T00:56:48.629Z,100627.31
2022-08-26T00:59:18.105Z,100650.06
2022-08-26T01:01:46.278Z,100542.00
2022-08-26T01:04:19.630Z,100658.09
2022-08-26T01:06:49.452Z,100614.41
2022-08-26T01:09:17.668Z,100640.59
2022-08-26T01:11:46.070Z,100644.94
2022-08-26T01:14:13.739Z,100643.25
2022-08-26T01:16:42.315Z,100636.22
2022-08-26T01:19:52.307Z,100629.97
2022-08-26T01:22:19.354Z,100639.72
2022-08-26T01:24:49.524Z,100613.63
2022-08-26T01:27:20.361Z,100534.44
2022-08-26T01:29:49.348Z,100630.28
2022-08-26T01:32:20.829Z,100639.91
2022-08-26T01:34:49.045Z,100633.00
2022-08-26T01:37:20.637Z,100515.44
2022-08-26T01:39:52.006Z,100626.97
2022-08-26T01:42:21.340Z,100645.38
2022-08-26T01:44:55.951Z,100555.47
2022-08-26T01:47:26.066Z,100624.28
2022-08-26T01:49:56.055Z,100492.00
2022-08-26T01:52:27.977Z,100535.44
2022-08-26T01:54:57.242Z,100581.63
2022-08-26T01:57:25.560Z,100604.31
2022-08-26T01:59:55.585Z,100471.84
2022-08-26T02:02:24.536Z,100633.06
2022-08-26T02:04:59.727Z,100588.66
2022-08-26T02:07:27.919Z,100433.72
2022-08-26T02:09:55.289Z,100648.06
2022-08-26T02:12:22.508Z,100615.03
2022-08-26T02:14:55.337Z,100634.25
2022-08-26T02:17:29.449Z,100649.06
2022-08-26T02:19:58.133Z,100645.72
2022-08-26T02:22:25.124Z,100632.69
2022-08-26T02:24:59.154Z,100651.78
2022-08-26T02:27:32.913Z,100658.06
2022-08-26T02:30:07.253Z,100638.94
2022-08-26T02:32:34.171Z,100660.75
2022-08-26T02:35:02.238Z,100638.84
2022-08-26T02:37:31.335Z,100637.19
2022-08-26T02:39:58.982Z,100621.47
2022-08-26T02:42:25.993Z,100635.44
2022-08-26T02:44:53.806Z,100574.41
2022-08-26T02:47:20.722Z,100620.59
2022-08-26T02:49:52.278Z,100592.78
2022-08-26T02:52:20.488Z,100664.34
2022-08-26T02:54:48.095Z,100574.50
2022-08-26T02:57:17.255Z,100639.00
2022-08-26T02:59:44.320Z,100583.13
2022-08-26T03:02:12.358Z,100649.38
2022-08-26T03:04:40.895Z,100644.19
2022-08-26T03:07:25.288Z,100556.16
2022-08-26T03:09:53.167Z,100659.97
2022-08-26T03:12:20.479Z,100609.56
2022-08-26T03:14:48.021Z,100665.19
2022-08-26T03:17:16.092Z,100618.94
2022-08-26T03:19:43.030Z,100649.38
2022-08-26T03:22:11.094Z,100634.53
2022-08-26T03:24:38.006Z,100653.78
2022-08-26T03:27:07.239Z,100659.91
2022-08-26T03:29:53.006Z,100651.00
2022-08-26T03:32:20.856Z,100637.97
2022-08-26T03:34:48.170Z,100652.81
2022-08-26T03:37:15.236Z,100594.41
2022-08-26T03:39:42.223Z,100646.69
2022-08-26T03:42:09.384Z,100662.25
2022-08-26T03:44:41.945Z,100667.50
2022-08-26T03:47:09.526Z,100671.84
2022-08-26T03:49:36.614Z,100656.97
2022-08-26T03:52:04.952Z,100674.38
2022-08-26T03:54:33.521Z,100583.81
2022-08-26T03:57:00.677Z,100660.13
2022-08-26T03:59:27.931Z,100619.03
2022-08-26T04:01:55.567Z,100666.97
2022-08-26T04:04:24.535Z,100563.16
2022-08-26T04:06:58.505Z,100558.78
2022-08-26T04:09:26.710Z,100669.34
2022-08-26T04:11:54.623Z,100671.78
2022-08-26T04:14:24.333Z,100632.47
2022-08-26T04:16:52.581Z,100614.84
2022-08-26T04:19:23.905Z,100674.03
2022-08-26T04:21:55.595Z,100676.63
2022-08-26T04:24:26.465Z,100659.06
2022-08-26T04:26:56.473Z,100651.16
2022-08-26T04:29:26.742Z,100599.50
2022-08-26T04:31:55.978Z,100681.31
2022-08-26T04:34:28.355Z,100673.31
2022-08-26T04:36:56.741Z,100674.13
2022-08-26T04:39:24.511Z,100651.25
2022-08-26T04:41:55.222Z,100639.81
2022-08-26T04:44:22.802Z,100574.22
2022-08-26T04:46:50.945Z,100658.41
2022-08-26T04:49:18.199Z,100679.16
2022-08-26T04:51:45.435Z,100683.34
2022-08-26T04:54:12.465Z,100676.09
2022-08-26T04:56:42.014Z,100677.66
2022-08-26T04:59:17.187Z,100681.91
2022-08-26T05:01:51.658Z,100671.34
2022-08-26T05:04:20.590Z,100578.88
2022-08-26T05:06:48.748Z,100498.84
2022-08-26T05:09:16.595Z,100629.25
2022-08-26T05:11:43.677Z,100687.41
2022-08-26T05:14:10.599Z,100690.66
2022-08-26T05:16:40.308Z,100690.41
2022-08-26T05:19:08.429Z,100604.13
2022-08-26T05:21:36.676Z,100683.94
2022-08-26T05:24:04.776Z,100668.13
2022-08-26T05:26:32.321Z,100690.59
2022-08-26T05:28:59.293Z,100693.00
2022-08-26T05:31:31.201Z,100687.31
2022-08-26T05:33:58.987Z,100621.75
2022-08-26T05:36:29.118Z,100629.53
2022-08-26T05:38:57.901Z,100677.59
2022-08-26T05:41:35.394Z,100678.34
2022-08-26T05:44:06.093Z,100643.91
2022-08-26T05:46:34.634Z,100692.34
2022-08-26T05:49:02.703Z,100672.78
2022-08-26T05:51:30.411Z,100681.09
2022-08-26T05:53:58.827Z,100617.47
2022-08-26T05:56:27.806Z,100667.34
2022-08-26T05:58:58.337Z,100677.28
2022-08-26T06:01:28.024Z,100630.81
2022-08-26T06:04:01.805Z,100621.78
2022-08-26T06:06:34.747Z,100695.00
2022-08-26T06:09:04.542Z,100684.34
2022-08-26T06:11:33.032Z,100696.81
2022-08-26T06:14:03.866Z,100681.38
2022-08-26T06:16:34.855Z,100679.75
2022-08-26T06:19:10.227Z,100601.84
2022-08-26T06:21:40.257Z,100681.75
2022-08-26T06:24:28.782Z,100617.50
2022-08-26T06:26:58.520Z,100593.25
2022-08-26T06:29:26.543Z,100616.78
2022-08-26T06:31:56.277Z,100651.63
2022-08-26T06:34:26.740Z,100690.66
2022-08-26T06:36:59.890Z,100638.94
2022-08-26T06:39:30.780Z,100647.69
2022-08-26T06:42:02.652Z,100697.56
2022-08-26T06:44:34.424Z,100629.28
2022-08-26T06:47:01.690Z,100673.03
2022-08-26T06:49:28.737Z,100693.25
2022-08-26T06:51:59.611Z,100689.47
2022-08-26T06:54:31.730Z,100658.31
2022-08-26T06:56:59.198Z,100569.97
2022-08-26T06:59:26.359Z,100679.53
2022-08-26T07:01:54.918Z,100669.19
2022-08-26T07:04:23.316Z,100674.97
2022-08-26T07:06:53.572Z,100631.78
2022-08-26T07:09:27.605Z,100677.81
2022-08-26T07:11:56.357Z,100689.38
2022-08-26T07:14:23.942Z,100693.41
2022-08-26T07:16:51.557Z,100689.28
2022-08-26T07:19:28.511Z,100690.47
2022-08-26T07:22:01.990Z,100682.19
2022-08-26T07:24:29.657Z,100686.88
2022-08-26T07:27:02.863Z,100686.50
2022-08-26T07:29:31.001Z,100666.88
2022-08-26T07:31:58.468Z,100681.84
2022-08-26T07:34:26.196Z,100695.69
2022-08-26T07:36:53.970Z,100685.47
2022-08-26T07:39:23.676Z,100677.25
2022-08-26T07:41:52.868Z,100595.31
2022-08-26T07:44:20.170Z,100687.09
2022-08-26T07:46:53.033Z,100622.06
2022-08-26T07:49:22.984Z,100685.44
2022-08-26T07:51:51.270Z,100662.91
2022-08-26T07:54:18.820Z,100682.44
2022-08-26T07:56:46.759Z,100656.91
2022-08-26T07:59:15.156Z,100684.66
2022-08-26T08:01:44.764Z,100664.63
2022-08-26T08:04:17.848Z,100679.72
2022-08-26T08:06:45.892Z,100667.56
2022-08-26T08:09:16.147Z,100669.06
2022-08-26T08:11:45.067Z,100587.66
2022-08-26T08:14:13.459Z,100675.13
2022-08-26T08:16:46.090Z,100680.13
2022-08-26T08:19:15.477Z,100681.94
2022-08-26T08:21:44.137Z,100685.13
2022-08-26T08:24:12.142Z,100679.44
2022-08-26T08:26:39.381Z,100542.38
2022-08-26T08:29:09.698Z,100651.59
2022-08-26T08:34:26.096Z,100678.38
2022-08-26T08:36:53.834Z,100641.50
2022-08-26T08:39:22.430Z,100643.03
2022-08-26T08:41:58.651Z,100673.66
2022-08-26T08:47:13.220Z,100674.25
2022-08-26T08:49:40.443Z,100562.50
2022-08-26T08:52:18.956Z,100636.22
2022-08-26T08:54:47.139Z,100651.38
2022-08-26T08:57:31.799Z,100652.09
2022-08-26T09:00:07.451Z,100658.06
2022-08-26T09:03:01.768Z,100427.84
2022-08-26T09:05:34.631Z,100660.03
2022-08-26T09:08:04.917Z,100652.47
2022-08-26T09:10:40.754Z,100651.88
2022-08-26T09:13:16.729Z,100653.84
2022-08-26T09:16:19.189Z,100652.66
2022-08-26T09:18:59.778Z,100573.06
2022-08-26T09:21:29.175Z,100598.63
2022-08-26T09:23:57.781Z,100655.56
2022-08-26T09:26:47.288Z,100652.81
2022-08-26T09:29:25.670Z,100621.81
2022-08-26T09:32:13.682Z,100584.59
2022-08-26T09:35:01.493Z,100648.66
2022-08-26T09:37:42.824Z,100567.75
2022-08-26T09:40:18.070Z,100644.97
2022-08-26T09:42:45.903Z,100643.38
2022-08-26T09:45:15.700Z,100565.47
2022-08-26T09:47:47.243Z,100462.66
2022-08-26T09:50:53.289Z,100638.75
2022-08-26T09:53:32.309Z,100570.56
2022-08-26T09:56:18.337Z,100641.44
2022-08-26T09:58:48.383Z,100640.44
2022-08-26T10:01:32.279Z,100606.66
2022-08-26T10:04:08.025Z,100634.47
2022-08-26T10:06:40.806Z,100619.59
2022-08-26T10:09:12.518Z,100630.16
2022-08-26T10:11:48.227Z,100624.97
2022-08-26T10:14:25.474Z,100624.97
2022-08-26T10:17:01.458Z,100626.28
2022-08-26T10:19:55.766Z,100604.75
2022-08-26T10:22:37.504Z,100621.69
2022-08-26T10:25:10.108Z,100583.81
2022-08-26T10:27:52.728Z,100616.81
2022-08-26T10:30:24.354Z,100614.31
2022-08-26T10:33:10.759Z,100613.34
2022-08-26T10:35:45.062Z,100594.13
2022-08-26T10:38:15.990Z,100608.38
2022-08-26T10:40:59.235Z,100486.19
2022-08-26T10:43:40.997Z,100598.78
2022-08-26T10:46:24.007Z,100601.34
2022-08-26T10:49:03.323Z,100571.19
2022-08-26T10:51:42.215Z,100578.63
2022-08-26T10:54:27.808Z,100585.88
2022-08-26T10:57:00.404Z,100593.72
2022-08-26T10:59:52.005Z,100590.47
2022-08-26T11:02:47.170Z,100603.00
2022-08-26T11:05:23.557Z,100603.59
2022-08-26T11:08:14.447Z,100596.50
2022-08-26T11:10:55.045Z,100586.72
2022-08-26T11:13:59.415Z,100587.47
2022-08-26T11:16:43.491Z,100583.06
2022-08-26T11:19:57.121Z,100511.59
2022-08-26T11:22:25.498Z,100588.59
2022-08-26T11:24:55.686Z,100589.63
2022-08-26T11:27:28.747Z,100514.00
2022-08-26T11:30:02.826Z,100581.56
2022-08-26T11:32:42.037Z,100581.44
2022-08-26T11:35:29.233Z,100569.38
2022-08-26T11:38:12.695Z,100550.00
2022-08-26T11:40:41.134Z,100558.19
2022-08-26T11:43:21.318Z,100562.41
2022-08-26T11:46:00.938Z,100476.94
2022-08-26T11:48:40.624Z,100563.56
2022-08-26T11:51:10.180Z,100563.22
2022-08-26T11:53:42.962Z,100549.09
2022-08-26T11:56:16.940Z,100528.66
2022-08-26T11:58:46.871Z,100524.91
2022-08-26T12:01:26.631Z,100559.81
2022-08-26T12:03:56.905Z,100467.16
2022-08-26T12:06:28.149Z,100545.31
2022-08-26T12:09:00.592Z,100492.97
2022-08-26T12:11:31.250Z,100502.44
2022-08-26T12:14:02.947Z,100554.91
2022-08-26T12:16:37.123Z,100546.31
2022-08-26T12:19:28.978Z,100545.91
2022-08-26T12:22:23.454Z,100513.91
2022-08-26T12:25:00.747Z,100535.66
2022-08-26T12:27:36.931Z,100503.16
2022-08-26T12:30:09.668Z,100470.84
2022-08-26T12:32:57.593Z,100536.25
2022-08-26T12:35:26.935Z,100518.69
2022-08-26T12:37:54.466Z,100534.94
2022-08-26T12:40:41.753Z,100534.25
2022-08-26T12:43:10.906Z,100535.53
2022-08-26T12:46:00.673Z,100517.84
2022-08-26T12:48:32.046Z,100526.69
2022-08-26T12:51:00.857Z,100527.72
2022-08-26T12:53:33.225Z,100512.09
2022-08-26T12:56:06.124Z,100529.91
2022-08-26T12:58:38.751Z,100501.44
2022-08-26T13:01:06.646Z,100511.78
2022-08-26T13:03:35.216Z,100517.91
2022-08-26T13:06:16.765Z,100438.38
2022-08-26T13:08:52.524Z,100482.50
2022-08-26T13:11:28.451Z,100520.59
2022-08-26T13:14:02.607Z,100525.13
2022-08-26T13:16:35.318Z,100519.50
2022-08-26T13:19:12.148Z,100487.59
2022-08-26T13:21:54.072Z,100436.50
2022-08-26T13:24:36.771Z,100428.00
2022-08-26T13:27:06.412Z,100479.38
2022-08-26T13:29:33.835Z,100508.81
2022-08-26T13:32:01.316Z,100502.69
2022-08-26T13:34:30.187Z,100497.84
2022-08-26T13:36:58.041Z,100502.25
2022-08-26T13:39:27.625Z,100482.16
2022-08-26T13:41:54.808Z,100499.63
2022-08-26T13:44:22.085Z,100436.56
2022-08-26T13:46:49.181Z,100493.69
2022-08-26T13:49:16.201Z,100429.88
2022-08-26T13:51:43.193Z,100480.75
2022-08-26T13:54:10.237Z,100477.28
2022-08-26T13:56:37.665Z,100484.19
2022-08-26T13:59:04.885Z,100479.13
2022-08-26T14:01:33.835Z,100472.81
2022-08-26T14:04:00.798Z,100479.44
2022-08-26T14:06:27.750Z,100485.88
2022-08-26T14:08:54.804Z,100484.38
2022-08-26T14:11:23.235Z,100492.72
2022-08-26T14:13:50.779Z,100460.91
2022-08-26T14:16:27.427Z,100472.63
2022-08-26T14:18:55.104Z,100489.75
2022-08-26T14:21:22.578Z,100492.66
2022-08-26T14:23:49.614Z,100460.06
2022-08-26T14:26:28.082Z,100474.81
2022-08-26T14:29:00.671Z,100477.03
2022-08-26T14:31:29.586Z,100427.94
2022-08-26T14:34:03.893Z,100415.38
2022-08-26T14:36:32.497Z,100464.66
2022-08-26T14:39:09.217Z,100491.94
2022-08-26T14:41:43.305Z,100399.38
2022-08-26T14:44:15.192Z,100453.19
2022-08-26T14:46:48.720Z,100487.31
2022-08-26T14:49:18.538Z,100456.47
2022-08-26T14:51:46.205Z,100426.59
2022-08-26T14:54:14.679Z,100343.75
2022-08-26T14:56:46.958Z,100390.94
2022-08-26T14:59:17.581Z,100474.25
2022-08-26T15:01:45.570Z,100442.59
2022-08-26T15:04:13.583Z,100414.47
2022-08-26T15:06:40.928Z,100494.09
2022-08-26T15:09:08.553Z,100461.00
2022-08-26T15:11:35.718Z,100487.06
2022-08-26T15:14:03.183Z,100480.72
2022-08-26T15:16:30.431Z,100473.25
2022-08-26T15:18:57.490Z,100340.69
2022-08-26T15:21:26.759Z,100449.88
2022-08-26T15:23:54.608Z,100497.13
2022-08-26T15:26:22.434Z,100498.44
2022-08-26T15:28:50.391Z,100501.75
2022-08-26T15:31:17.883Z,100470.81
2022-08-26T15:33:45.034Z,100485.78
2022-08-26T15:36:12.071Z,100497.56
2022-08-26T15:38:42.503Z,100418.56
2022-08-26T15:41:10.433Z,100425.06
2022-08-26T15:43:38.073Z,100413.09
2022-08-26T15:46:10.460Z,100499.19
2022-08-26T15:48:38.552Z,100500.47
2022-08-26T15:51:07.151Z,100498.31
2022-08-26T15:53:35.521Z,100511.81
2022-08-26T15:56:02.754Z,100505.06
2022-08-26T15:58:30.492Z,100496.19
2022-08-26T16:00:58.035Z,100485.81
2022-08-26T16:03:25.213Z,100489.69
2022-08-26T16:05:52.465Z,100513.19
2022-08-26T16:08:19.781Z,100483.25
2022-08-26T16:10:50.697Z,100512.03
2022-08-26T16:13:19.665Z,100485.81
2022-08-26T16:15:48.407Z,100490.31
2022-08-26T16:18:16.487Z,100519.25
2022-08-26T16:21:01.550Z,100466.47
2022-08-26T16:23:39.772Z,100443.59
2022-08-26T16:26:12.573Z,100481.09
2022-08-26T16:28:39.874Z,100506.34
2022-08-26T16:31:07.637Z,100414.78
2022-08-26T16:33:34.599Z,100486.00
2022-08-26T16:36:01.820Z,100501.09
2022-08-26T16:38:28.855Z,100433.03
2022-08-26T16:40:56.114Z,100508.56
2022-08-26T16:43:23.147Z,100457.94
2022-08-26T16:45:50.207Z,100513.53
2022-08-26T16:48:18.157Z,100521.84
2022-08-26T16:50:45.319Z,100515.09
2022-08-26T16:55:45.979Z,100495.97
2022-08-26T16:58:13.295Z,100428.72
2022-08-26T17:00:40.605Z,100531.34
2022-08-26T17:03:07.929Z,100483.97
2022-08-26T17:05:36.345Z,100466.22
2022-08-26T17:08:04.868Z,100525.22
2022-08-26T17:10:32.335Z,100536.94
2022-08-26T17:12:59.753Z,100430.47
2022-08-26T17:15:27.229Z,100519.31
2022-08-26T17:17:54.802Z,100510.72
2022-08-26T17:20:23.714Z,100524.19
2022-08-26T17:22:53.074Z,100541.00
2022-08-26T17:25:28.533Z,100542.09
2022-08-26T17:30:25.897Z,100508.56
2022-08-26T17:32:54.787Z,100436.94
2022-08-26T17:35:22.996Z,100527.19
2022-08-26T17:37:50.102Z,100503.94
2022-08-26T17:40:21.727Z,100442.81
2022-08-26T17:42:48.959Z,100515.56
2022-08-26T17:45:16.843Z,100440.56
2022-08-26T17:47:44.848Z,100468.25
2022-08-26T17:50:15.191Z,100531.97
2022-08-26T17:52:44.237Z,100530.09
2022-08-26T17:55:13.295Z,100516.25
2022-08-26T17:57:40.646Z,100493.88
2022-08-26T18:00:12.802Z,100499.28
2022-08-26T18:02:41.088Z,100503.84
2022-08-26T18:05:09.818Z,100532.06
2022-08-26T18:07:43.877Z,100466.78
2022-08-26T18:10:15.491Z,100519.00
2022-08-26T18:12:42.981Z,100497.56
2022-08-26T18:15:11.552Z,100522.16
2022-08-26T18:17:39.604Z,100524.75
2022-08-26T18:20:09.500Z,100526.78
2022-08-26T18:22:36.699Z,100513.81
2022-08-26T18:25:05.124Z,100529.69
2022-08-26T18:27:32.572Z,100444.03
2022-08-26T18:30:00.326Z,100525.63
2022-08-26T18:32:27.506Z,100465.22
2022-08-26T18:34:54.701Z,100498.53
2022-08-26T18:37:21.812Z,100444.06
2022-08-26T18:39:49.150Z,100529.25
2022-08-26T18:42:16.326Z,100426.28
2022-08-26T18:44:43.415Z,100522.06
2022-08-26T18:47:11.210Z,100550.19
2022-08-26T18:56:37.960Z,100470.09
2022-08-26T18:59:28.465Z,100549.06
2022-08-26T19:01:58.263Z,100545.19
2022-08-26T19:04:26.134Z,100537.34
2022-08-26T19:10:17.827Z,100559.75
2022-08-26T19:12:46.106Z,100479.25
2022-08-26T19:15:19.225Z,100541.91
2022-08-26T19:17:46.344Z,100517.91
2022-08-26T19:20:13.392Z,100545.81
2022-08-26T19:22:40.506Z,100476.53
2022-08-26T19:25:08.011Z,100511.53
2022-08-26T19:27:35.070Z,100506.53
2022-08-26T19:30:02.215Z,100541.19
2022-08-26T19:32:30.811Z,100561.34
2022-08-26T19:34:57.828Z,100555.53
2022-08-26T19:37:24.803Z,100493.31
2022-08-26T19:39:51.987Z,100515.25
2022-08-26T19:42:19.223Z,100584.16
2022-08-26T19:45:04.765Z,100583.34
2022-08-26T19:47:32.046Z,100557.38
2022-08-26T19:49:59.095Z,100583.69
2022-08-26T19:52:29.942Z,100570.00
2022-08-26T19:54:58.037Z,100575.19
2022-08-26T19:57:25.219Z,100551.66
2022-08-26T19:59:52.347Z,100589.22
2022-08-26T20:02:19.886Z,100568.41
2022-08-26T20:04:47.414Z,100510.19
2022-08-26T20:07:18.578Z,100536.38
2022-08-26T20:09:47.957Z,100583.28
2022-08-26T20:12:16.480Z,100434.09
2022-08-26T20:14:43.595Z,100595.91
2022-08-26T20:17:11.431Z,100523.91
2022-08-26T20:19:56.896Z,100597.84
2022-08-26T20:22:24.779Z,100599.81
2022-08-26T20:24:52.825Z,100605.19
2022-08-26T20:27:22.324Z,100606.25
2022-08-26T20:29:49.357Z,100593.44
2022-08-26T20:32:18.519Z,100570.84
2022-08-26T20:34:45.678Z,100585.84
2022-08-26T20:37:13.165Z,100610.19
2022-08-26T20:39:40.386Z,100601.59
2022-08-26T20:42:19.806Z,100580.91
2022-08-26T20:44:54.735Z,100607.78
2022-08-26T20:47:23.288Z,100585.34
2022-08-26T20:49:52.457Z,100534.03
2022-08-26T20:52:20.436Z,100566.31
2022-08-26T20:54:47.397Z,100610.69
2022-08-26T20:57:14.856Z,100615.31
2022-08-26T20:59:43.109Z,100579.78
2022-08-26T21:02:10.147Z,100596.34
2022-08-26T21:04:37.242Z,100564.31
2022-08-26T21:07:04.292Z,100609.50
2022-08-26T21:09:33.062Z,100606.84
2022-08-26T21:12:00.084Z,100591.41
2022-08-26T21:14:27.216Z,100610.53
2022-08-26T21:16:54.584Z,100547.06
2022-08-26T21:19:22.076Z,100615.09
2022-08-26T21:21:49.775Z,100610.59
2022-08-26T21:24:17.315Z,100615.03
2022-08-26T21:26:44.802Z,100608.88
2022-08-26T21:29:13.674Z,100523.81
2022-08-26T21:31:46.040Z,100593.41
2022-08-26T21:34:18.498Z,100617.88
2022-08-26T21:36:48.767Z,100602.28
2022-08-26T21:39:16.548Z,100576.41
2022-08-26T21:41:44.422Z,100586.09
2022-08-26T21:44:12.537Z,100585.13
2022-08-26T21:46:39.877Z,100609.50
2022-08-26T21:49:10.868Z,100617.50
2022-08-26T21:51:41.508Z,100618.47
2022-08-26T21:54:11.282Z,100612.34
2022-08-26T21:56:46.250Z,100528.00
2022-08-26T21:59:15.674Z,100611.66
2022-08-26T22:01:43.033Z,100534.28
2022-08-26T22:04:18.886Z,100568.97
2022-08-26T22:06:51.463Z,100612.41
2022-08-26T22:09:26.810Z,100602.94
2022-08-26T22:11:54.251Z,100520.97
2022-08-26T22:14:22.402Z,100548.00
2022-08-26T22:16:50.537Z,100609.75
2022-08-26T22:19:20.141Z,100609.75
2022-08-26T22:21:50.201Z,100463.78
2022-08-26T22:24:22.590Z,100582.09
2022-08-26T22:26:50.102Z,100607.50
2022-08-26T22:29:17.549Z,100609.31
2022-08-26T22:31:44.980Z,100530.97
2022-08-26T22:34:17.142Z,100617.06
2022-08-26T22:36:46.699Z,100618.03
2022-08-26T22:39:16.096Z,100600.72
2022-08-26T22:41:44.367Z,100605.09
2022-08-26T22:44:12.347Z,100621.88
2022-08-26T22:46:40.505Z,100618.38
2022-08-26T22:49:10.210Z,100606.25
2022-08-26T22:51:37.291Z,100588.81
2022-08-26T22:54:05.473Z,100591.69
2022-08-26T22:56:32.678Z,100603.09
2022-08-26T22:58:59.677Z,100538.66
2022-08-26T23:01:27.054Z,100612.59
2022-08-26T23:03:54.255Z,100605.69
2022-08-26T23:06:21.342Z,100556.09
2022-08-26T23:08:48.374Z,100587.56
2022-08-26T23:11:15.652Z,100544.97
2022-08-26T23:13:42.751Z,100606.03
2022-08-26T23:16:11.980Z,100592.22
2022-08-26T23:18:41.047Z,100611.31
2022-08-26T23:21:08.925Z,100608.66
2022-08-26T23:23:36.768Z,100561.69
2022-08-26T23:26:06.250Z,100512.25
2022-08-26T23:28:35.023Z,100581.06
2022-08-26T23:31:02.147Z,100505.22
2022-08-26T23:33:49.310Z,100512.22
2022-08-26T23:36:18.457Z,100605.47
2022-08-26T23:38:52.601Z,100576.88
2022-08-26T23:41:22.767Z,100584.00
2022-08-26T23:43:50.720Z,100562.16
2022-08-26T23:46:18.899Z,100617.16
2022-08-26T23:48:47.169Z,100594.59
2022-08-26T23:51:32.886Z,100627.06
2022-08-26T23:54:00.271Z,100585.22
2022-08-26T23:56:27.434Z,100566.09
2022-08-26T23:58:55.025Z,100552.34
